sensor_id;sensor_type;location;lat;lon;timestamp;P1;durP1;ratioP1;P2;durP2;ratioP2
80494;SDS011;69819;48.798;11.770;2023-07-22T00:01:02;0.90;;;0.80;;
80494;SDS011;69819;48.798;11.770;2023-07-22T00:03:28;0.98;;;0.80;;
80494;SDS011;69819;48.798;11.770;2023-07-22T00:06:06;1.20;;;0.77;;
80494;SDS011;69819;48.798;11.770;2023-07-22T00:08:35;1.42;;;0.70;;
80494;SDS011;69819;48.798;11.770;2023-07-22T00:11:06;1.23;;;0.90;;
80494;SDS011;69819;48.798;11.770;2023-07-22T00:13:33;1.30;;;0.90;;
80494;SDS011;69819;48.798;11.770;2023-07-22T00:16:00;1.25;;;0.80;;
80494;SDS011;69819;48.798;11.770;2023-07-22T00:18:27;1.55;;;1.00;;
80494;SDS011;69819;48.798;11.770;2023-07-22T00:20:53;0.90;;;0.73;;
80494;SDS011;69819;48.798;11.770;2023-07-22T00:23:20;1.00;;;0.90;;
80494;SDS011;69819;48.798;11.770;2023-07-22T00:25:46;1.45;;;0.95;;
80494;SDS011;69819;48.798;11.770;2023-07-22T00:28:13;1.35;;;0.98;;
80494;SDS011;69819;48.798;11.770;2023-07-22T00:30:39;1.00;;;0.82;;
80494;SDS011;69819;48.798;11.770;2023-07-22T00:33:06;1.00;;;0.90;;
80494;SDS011;69819;48.798;11.770;2023-07-22T00:35:33;1.00;;;0.73;;
80494;SDS011;69819;48.798;11.770;2023-07-22T00:38:02;1.25;;;0.88;;
80494;SDS011;69819;48.798;11.770;2023-07-22T00:40:29;0.80;;;0.80;;
80494;SDS011;69819;48.798;11.770;2023-07-22T00:42:57;1.02;;;0.85;;
80494;SDS011;69819;48.798;11.770;2023-07-22T00:45:24;1.02;;;0.80;;
80494;SDS011;69819;48.798;11.770;2023-07-22T00:47:50;1.13;;;0.93;;
80494;SDS011;69819;48.798;11.770;2023-07-22T00:50:16;0.77;;;0.77;;
80494;SDS011;69819;48.798;11.770;2023-07-22T00:52:42;1.85;;;0.88;;
80494;SDS011;69819;48.798;11.770;2023-07-22T00:55:08;1.63;;;1.00;;
80494;SDS011;69819;48.798;11.770;2023-07-22T00:57:35;0.93;;;0.93;;
80494;SDS011;69819;48.798;11.770;2023-07-22T01:00:02;0.85;;;0.85;;
80494;SDS011;69819;48.798;11.770;2023-07-22T01:02:30;1.27;;;1.10;;
80494;SDS011;69819;48.798;11.770;2023-07-22T01:04:57;1.45;;;1.00;;
80494;SDS011;69819;48.798;11.770;2023-07-22T01:07:23;1.35;;;0.80;;
80494;SDS011;69819;48.798;11.770;2023-07-22T01:09:49;0.90;;;0.90;;
80494;SDS011;69819;48.798;11.770;2023-07-22T01:12:23;0.73;;;0.73;;
80494;SDS011;69819;48.798;11.770;2023-07-22T01:14:49;0.75;;;0.75;;
80494;SDS011;69819;48.798;11.770;2023-07-22T01:17:16;0.77;;;0.77;;
80494;SDS011;69819;48.798;11.770;2023-07-22T01:19:42;0.82;;;0.80;;
80494;SDS011;69819;48.798;11.770;2023-07-22T01:22:09;1.05;;;0.60;;
80494;SDS011;69819;48.798;11.770;2023-07-22T01:24:36;0.90;;;0.82;;
80494;SDS011;69819;48.798;11.770;2023-07-22T01:27:03;1.08;;;1.00;;
80494;SDS011;69819;48.798;11.770;2023-07-22T01:29:33;0.90;;;0.90;;
80494;SDS011;69819;48.798;11.770;2023-07-22T01:32:00;0.82;;;0.70;;
80494;SDS011;69819;48.798;11.770;2023-07-22T01:34:27;1.08;;;0.82;;
80494;SDS011;69819;48.798;11.770;2023-07-22T01:36:54;1.33;;;1.00;;
80494;SDS011;69819;48.798;11.770;2023-07-22T01:39:20;1.15;;;0.82;;
80494;SDS011;69819;48.798;11.770;2023-07-22T01:41:47;1.48;;;0.98;;
80494;SDS011;69819;48.798;11.770;2023-07-22T01:44:13;1.60;;;0.95;;
80494;SDS011;69819;48.798;11.770;2023-07-22T01:46:40;1.38;;;0.90;;
80494;SDS011;69819;48.798;11.770;2023-07-22T01:49:11;1.15;;;1.00;;
80494;SDS011;69819;48.798;11.770;2023-07-22T01:51:38;2.28;;;1.00;;
80494;SDS011;69819;48.798;11.770;2023-07-22T01:54:07;1.17;;;0.80;;
80494;SDS011;69819;48.798;11.770;2023-07-22T01:56:34;1.38;;;0.98;;
80494;SDS011;69819;48.798;11.770;2023-07-22T01:59:04;0.95;;;0.90;;
80494;SDS011;69819;48.798;11.770;2023-07-22T02:01:31;1.10;;;1.00;;
80494;SDS011;69819;48.798;11.770;2023-07-22T02:03:57;0.85;;;0.85;;
80494;SDS011;69819;48.798;11.770;2023-07-22T02:06:23;3.83;;;1.15;;
80494;SDS011;69819;48.798;11.770;2023-07-22T02:08:49;1.50;;;0.90;;
80494;SDS011;69819;48.798;11.770;2023-07-22T02:11:15;1.05;;;0.95;;
80494;SDS011;69819;48.798;11.770;2023-07-22T02:13:42;1.52;;;1.42;;
80494;SDS011;69819;48.798;11.770;2023-07-22T02:16:08;0.90;;;0.90;;
80494;SDS011;69819;48.798;11.770;2023-07-22T02:18:37;0.85;;;0.85;;
80494;SDS011;69819;48.798;11.770;2023-07-22T02:21:03;0.85;;;0.85;;
80494;SDS011;69819;48.798;11.770;2023-07-22T02:23:29;0.90;;;0.82;;
80494;SDS011;69819;48.798;11.770;2023-07-22T02:25:55;1.05;;;0.80;;
80494;SDS011;69819;48.798;11.770;2023-07-22T02:28:21;0.80;;;0.80;;
80494;SDS011;69819;48.798;11.770;2023-07-22T02:30:49;1.27;;;1.02;;
80494;SDS011;69819;48.798;11.770;2023-07-22T02:33:17;1.08;;;1.00;;
80494;SDS011;69819;48.798;11.770;2023-07-22T02:35:44;1.45;;;0.98;;
80494;SDS011;69819;48.798;11.770;2023-07-22T02:38:12;1.38;;;1.10;;
80494;SDS011;69819;48.798;11.770;2023-07-22T02:40:39;1.52;;;1.08;;
80494;SDS011;69819;48.798;11.770;2023-07-22T02:43:05;1.52;;;1.00;;
80494;SDS011;69819;48.798;11.770;2023-07-22T02:45:32;1.63;;;1.17;;
80494;SDS011;69819;48.798;11.770;2023-07-22T02:47:59;1.17;;;1.17;;
80494;SDS011;69819;48.798;11.770;2023-07-22T02:50:25;1.00;;;1.00;;
80494;SDS011;69819;48.798;11.770;2023-07-22T02:52:51;0.90;;;0.90;;
80494;SDS011;69819;48.798;11.770;2023-07-22T02:55:17;1.17;;;0.98;;
80494;SDS011;69819;48.798;11.770;2023-07-22T02:57:44;1.33;;;1.00;;
80494;SDS011;69819;48.798;11.770;2023-07-22T03:00:11;2.13;;;1.15;;
80494;SDS011;69819;48.798;11.770;2023-07-22T03:02:42;1.20;;;1.08;;
80494;SDS011;69819;48.798;11.770;2023-07-22T03:05:08;1.52;;;1.05;;
80494;SDS011;69819;48.798;11.770;2023-07-22T03:07:38;1.25;;;1.15;;
80494;SDS011;69819;48.798;11.770;2023-07-22T03:10:05;1.13;;;0.90;;
80494;SDS011;69819;48.798;11.770;2023-07-22T03:12:32;1.77;;;1.25;;
80494;SDS011;69819;48.798;11.770;2023-07-22T03:14:59;1.00;;;0.90;;
80494;SDS011;69819;48.798;11.770;2023-07-22T03:17:25;1.45;;;1.35;;
80494;SDS011;69819;48.798;11.770;2023-07-22T03:19:51;1.63;;;1.30;;
80494;SDS011;69819;48.798;11.770;2023-07-22T03:22:17;2.15;;;1.13;;
80494;SDS011;69819;48.798;11.770;2023-07-22T03:24:46;1.50;;;0.90;;
80494;SDS011;69819;48.798;11.770;2023-07-22T03:27:12;1.10;;;1.00;;
80494;SDS011;69819;48.798;11.770;2023-07-22T03:29:40;1.48;;;1.25;;
80494;SDS011;69819;48.798;11.770;2023-07-22T03:32:06;1.80;;;0.95;;
80494;SDS011;69819;48.798;11.770;2023-07-22T03:34:33;1.30;;;1.20;;
80494;SDS011;69819;48.798;11.770;2023-07-22T03:37:00;1.42;;;0.85;;
80494;SDS011;69819;48.798;11.770;2023-07-22T03:39:26;1.23;;;1.13;;
80494;SDS011;69819;48.798;11.770;2023-07-22T03:41:52;1.15;;;1.00;;
80494;SDS011;69819;48.798;11.770;2023-07-22T03:44:17;1.23;;;1.13;;
80494;SDS011;69819;48.798;11.770;2023-07-22T03:46:43;1.45;;;1.10;;
80494;SDS011;69819;48.798;11.770;2023-07-22T03:49:09;1.02;;;0.95;;
80494;SDS011;69819;48.798;11.770;2023-07-22T03:51:35;1.67;;;1.20;;
80494;SDS011;69819;48.798;11.770;2023-07-22T03:54:01;1.33;;;1.23;;
80494;SDS011;69819;48.798;11.770;2023-07-22T03:56:26;1.20;;;1.10;;
80494;SDS011;69819;48.798;11.770;2023-07-22T03:58:52;1.35;;;0.90;;
80494;SDS011;69819;48.798;11.770;2023-07-22T04:01:18;1.33;;;1.23;;
80494;SDS011;69819;48.798;11.770;2023-07-22T04:03:44;1.25;;;1.15;;
80494;SDS011;69819;48.798;11.770;2023-07-22T04:06:10;1.23;;;1.00;;
80494;SDS011;69819;48.798;11.770;2023-07-22T04:08:36;1.10;;;1.00;;
80494;SDS011;69819;48.798;11.770;2023-07-22T04:11:02;1.40;;;1.27;;
80494;SDS011;69819;48.798;11.770;2023-07-22T04:13:29;1.30;;;1.02;;
80494;SDS011;69819;48.798;11.770;2023-07-22T04:15:55;1.05;;;0.95;;
80494;SDS011;69819;48.798;11.770;2023-07-22T04:18:20;1.02;;;1.00;;
80494;SDS011;69819;48.798;11.770;2023-07-22T04:20:47;1.73;;;1.23;;
80494;SDS011;69819;48.798;11.770;2023-07-22T04:23:13;1.25;;;1.15;;
80494;SDS011;69819;48.798;11.770;2023-07-22T04:25:39;1.17;;;1.17;;
80494;SDS011;69819;48.798;11.770;2023-07-22T04:28:10;1.00;;;0.90;;
80494;SDS011;69819;48.798;11.770;2023-07-22T04:30:36;1.20;;;1.10;;
80494;SDS011;69819;48.798;11.770;2023-07-22T04:33:04;1.30;;;1.20;;
80494;SDS011;69819;48.798;11.770;2023-07-22T04:35:37;1.02;;;0.98;;
80494;SDS011;69819;48.798;11.770;2023-07-22T04:38:06;1.92;;;1.83;;
80494;SDS011;69819;48.798;11.770;2023-07-22T04:40:32;3.97;;;3.67;;
80494;SDS011;69819;48.798;11.770;2023-07-22T04:42:58;4.20;;;3.25;;
80494;SDS011;69819;48.798;11.770;2023-07-22T04:45:24;2.35;;;2.15;;
80494;SDS011;69819;48.798;11.770;2023-07-22T04:47:50;2.42;;;1.80;;
80494;SDS011;69819;48.798;11.770;2023-07-22T04:50:16;1.60;;;1.50;;
80494;SDS011;69819;48.798;11.770;2023-07-22T04:52:44;1.90;;;1.55;;
80494;SDS011;69819;48.798;11.770;2023-07-22T04:55:12;1.42;;;1.13;;
80494;SDS011;69819;48.798;11.770;2023-07-22T04:57:40;2.22;;;1.55;;
80494;SDS011;69819;48.798;11.770;2023-07-22T05:00:13;1.23;;;1.13;;
80494;SDS011;69819;48.798;11.770;2023-07-22T05:02:44;1.27;;;1.15;;
80494;SDS011;69819;48.798;11.770;2023-07-22T05:05:15;1.50;;;1.40;;
80494;SDS011;69819;48.798;11.770;2023-07-22T05:07:41;1.33;;;1.23;;
80494;SDS011;69819;48.798;11.770;2023-07-22T05:10:08;1.27;;;1.17;;
80494;SDS011;69819;48.798;11.770;2023-07-22T05:12:37;2.13;;;1.10;;
80494;SDS011;69819;48.798;11.770;2023-07-22T05:15:04;0.95;;;0.95;;
80494;SDS011;69819;48.798;11.770;2023-07-22T05:17:32;1.13;;;1.02;;
80494;SDS011;69819;48.798;11.770;2023-07-22T05:19:58;1.60;;;1.40;;
80494;SDS011;69819;48.798;11.770;2023-07-22T05:22:24;2.30;;;1.27;;
80494;SDS011;69819;48.798;11.770;2023-07-22T05:24:50;0.98;;;0.95;;
80494;SDS011;69819;48.798;11.770;2023-07-22T05:27:16;1.48;;;1.38;;
80494;SDS011;69819;48.798;11.770;2023-07-22T05:29:43;1.25;;;1.13;;
80494;SDS011;69819;48.798;11.770;2023-07-22T05:32:10;1.48;;;1.40;;
80494;SDS011;69819;48.798;11.770;2023-07-22T05:34:36;1.20;;;1.10;;
80494;SDS011;69819;48.798;11.770;2023-07-22T05:37:02;1.42;;;1.15;;
80494;SDS011;69819;48.798;11.770;2023-07-22T05:39:28;0.98;;;0.90;;
80494;SDS011;69819;48.798;11.770;2023-07-22T05:41:54;0.90;;;0.90;;
80494;SDS011;69819;48.798;11.770;2023-07-22T05:44:20;1.00;;;0.93;;
80494;SDS011;69819;48.798;11.770;2023-07-22T05:46:46;1.70;;;0.95;;
80494;SDS011;69819;48.798;11.770;2023-07-22T05:49:12;1.92;;;1.00;;
80494;SDS011;69819;48.798;11.770;2023-07-22T05:51:38;1.23;;;1.13;;
80494;SDS011;69819;48.798;11.770;2023-07-22T05:54:04;0.93;;;0.93;;
80494;SDS011;69819;48.798;11.770;2023-07-22T05:56:30;1.35;;;1.25;;
80494;SDS011;69819;48.798;11.770;2023-07-22T05:58:56;1.10;;;1.10;;
80494;SDS011;69819;48.798;11.770;2023-07-22T06:01:23;1.25;;;1.00;;
80494;SDS011;69819;48.798;11.770;2023-07-22T06:03:52;1.75;;;1.13;;
80494;SDS011;69819;48.798;11.770;2023-07-22T06:06:18;1.45;;;1.00;;
80494;SDS011;69819;48.798;11.770;2023-07-22T06:08:44;1.00;;;1.00;;
80494;SDS011;69819;48.798;11.770;2023-07-22T06:11:10;1.10;;;1.00;;
80494;SDS011;69819;48.798;11.770;2023-07-22T06:13:36;0.95;;;0.82;;
80494;SDS011;69819;48.798;11.770;2023-07-22T06:16:02;1.30;;;0.95;;
80494;SDS011;69819;48.798;11.770;2023-07-22T06:18:28;1.70;;;1.23;;
80494;SDS011;69819;48.798;11.770;2023-07-22T06:20:54;1.67;;;1.10;;
80494;SDS011;69819;48.798;11.770;2023-07-22T06:23:20;1.30;;;1.10;;
80494;SDS011;69819;48.798;11.770;2023-07-22T06:25:46;1.15;;;1.10;;
80494;SDS011;69819;48.798;11.770;2023-07-22T06:28:12;1.65;;;1.05;;
80494;SDS011;69819;48.798;11.770;2023-07-22T06:30:38;1.02;;;0.88;;
80494;SDS011;69819;48.798;11.770;2023-07-22T06:33:04;1.52;;;1.00;;
80494;SDS011;69819;48.798;11.770;2023-07-22T06:35:30;1.00;;;1.00;;
80494;SDS011;69819;48.798;11.770;2023-07-22T06:37:55;1.20;;;1.10;;
80494;SDS011;69819;48.798;11.770;2023-07-22T06:40:21;0.90;;;0.90;;
80494;SDS011;69819;48.798;11.770;2023-07-22T06:42:47;0.93;;;0.93;;
80494;SDS011;69819;48.798;11.770;2023-07-22T06:45:13;2.17;;;1.00;;
80494;SDS011;69819;48.798;11.770;2023-07-22T06:47:39;1.15;;;0.80;;
80494;SDS011;69819;48.798;11.770;2023-07-22T06:50:05;1.42;;;1.10;;
80494;SDS011;69819;48.798;11.770;2023-07-22T06:52:31;0.95;;;0.95;;
80494;SDS011;69819;48.798;11.770;2023-07-22T06:54:58;1.02;;;1.02;;
80494;SDS011;69819;48.798;11.770;2023-07-22T06:57:24;2.03;;;1.10;;
80494;SDS011;69819;48.798;11.770;2023-07-22T06:59:51;1.00;;;1.00;;
80494;SDS011;69819;48.798;11.770;2023-07-22T07:02:19;1.13;;;1.02;;
80494;SDS011;69819;48.798;11.770;2023-07-22T07:04:46;1.10;;;1.00;;
80494;SDS011;69819;48.798;11.770;2023-07-22T07:07:12;0.80;;;0.80;;
80494;SDS011;69819;48.798;11.770;2023-07-22T07:09:39;0.98;;;0.98;;
80494;SDS011;69819;48.798;11.770;2023-07-22T07:12:05;1.10;;;1.00;;
80494;SDS011;69819;48.798;11.770;2023-07-22T07:14:32;1.00;;;1.00;;
80494;SDS011;69819;48.798;11.770;2023-07-22T07:16:59;1.17;;;0.82;;
80494;SDS011;69819;48.798;11.770;2023-07-22T07:19:26;1.42;;;0.93;;
80494;SDS011;69819;48.798;11.770;2023-07-22T07:21:52;1.02;;;0.90;;
80494;SDS011;69819;48.798;11.770;2023-07-22T07:24:18;0.80;;;0.80;;
80494;SDS011;69819;48.798;11.770;2023-07-22T07:26:45;1.63;;;0.80;;
80494;SDS011;69819;48.798;11.770;2023-07-22T07:29:11;0.90;;;0.90;;
80494;SDS011;69819;48.798;11.770;2023-07-22T07:31:37;0.90;;;0.90;;
80494;SDS011;69819;48.798;11.770;2023-07-22T07:34:04;0.98;;;0.88;;
80494;SDS011;69819;48.798;11.770;2023-07-22T07:36:31;0.95;;;0.95;;
80494;SDS011;69819;48.798;11.770;2023-07-22T07:39:00;0.80;;;0.80;;
80494;SDS011;69819;48.798;11.770;2023-07-22T07:41:26;0.80;;;0.80;;
80494;SDS011;69819;48.798;11.770;2023-07-22T07:43:53;1.20;;;1.10;;
80494;SDS011;69819;48.798;11.770;2023-07-22T07:46:28;0.90;;;0.90;;
80494;SDS011;69819;48.798;11.770;2023-07-22T07:48:55;1.58;;;1.13;;
80494;SDS011;69819;48.798;11.770;2023-07-22T07:51:26;2.95;;;1.02;;
80494;SDS011;69819;48.798;11.770;2023-07-22T07:53:54;1.90;;;1.20;;
80494;SDS011;69819;48.798;11.770;2023-07-22T07:56:23;0.75;;;0.75;;
80494;SDS011;69819;48.798;11.770;2023-07-22T07:58:50;1.05;;;1.00;;
80494;SDS011;69819;48.798;11.770;2023-07-22T08:01:18;1.02;;;0.98;;
80494;SDS011;69819;48.798;11.770;2023-07-22T08:03:46;2.08;;;1.00;;
80494;SDS011;69819;48.798;11.770;2023-07-22T08:06:12;0.82;;;0.82;;
80494;SDS011;69819;48.798;11.770;2023-07-22T08:08:38;1.02;;;0.95;;
80494;SDS011;69819;48.798;11.770;2023-07-22T08:13:38;1.05;;;1.00;;
80494;SDS011;69819;48.798;11.770;2023-07-22T08:16:07;0.80;;;0.80;;
80494;SDS011;69819;48.798;11.770;2023-07-22T08:18:35;0.88;;;0.88;;
80494;SDS011;69819;48.798;11.770;2023-07-22T08:21:02;0.88;;;0.88;;
80494;SDS011;69819;48.798;11.770;2023-07-22T08:23:31;1.48;;;0.90;;
80494;SDS011;69819;48.798;11.770;2023-07-22T08:25:57;0.95;;;0.85;;
80494;SDS011;69819;48.798;11.770;2023-07-22T08:28:23;1.02;;;1.00;;
80494;SDS011;69819;48.798;11.770;2023-07-22T08:30:49;0.63;;;0.63;;
80494;SDS011;69819;48.798;11.770;2023-07-22T08:33:15;0.70;;;0.70;;
80494;SDS011;69819;48.798;11.770;2023-07-22T08:35:41;0.80;;;0.80;;
80494;SDS011;69819;48.798;11.770;2023-07-22T08:38:08;0.73;;;0.73;;
80494;SDS011;69819;48.798;11.770;2023-07-22T08:40:37;0.60;;;0.60;;
80494;SDS011;69819;48.798;11.770;2023-07-22T08:43:06;0.65;;;0.65;;
80494;SDS011;69819;48.798;11.770;2023-07-22T08:45:36;0.77;;;0.77;;
80494;SDS011;69819;48.798;11.770;2023-07-22T08:48:05;1.23;;;0.95;;
80494;SDS011;69819;48.798;11.770;2023-07-22T08:50:57;1.25;;;0.70;;
80494;SDS011;69819;48.798;11.770;2023-07-22T08:53:29;0.90;;;0.90;;
80494;SDS011;69819;48.798;11.770;2023-07-22T08:55:58;0.70;;;0.70;;
80494;SDS011;69819;48.798;11.770;2023-07-22T08:58:24;1.00;;;0.85;;
80494;SDS011;69819;48.798;11.770;2023-07-22T09:00:52;1.65;;;0.85;;
80494;SDS011;69819;48.798;11.770;2023-07-22T09:03:19;0.65;;;0.65;;
80494;SDS011;69819;48.798;11.770;2023-07-22T09:05:45;0.80;;;0.80;;
80494;SDS011;69819;48.798;11.770;2023-07-22T09:08:12;0.80;;;0.80;;
80494;SDS011;69819;48.798;11.770;2023-07-22T09:10:39;0.73;;;0.73;;
80494;SDS011;69819;48.798;11.770;2023-07-22T09:13:05;1.65;;;0.90;;
80494;SDS011;69819;48.798;11.770;2023-07-22T09:15:34;0.80;;;0.80;;
80494;SDS011;69819;48.798;11.770;2023-07-22T09:18:02;0.93;;;0.85;;
80494;SDS011;69819;48.798;11.770;2023-07-22T09:20:31;0.85;;;0.85;;
80494;SDS011;69819;48.798;11.770;2023-07-22T09:22:58;0.95;;;0.80;;
80494;SDS011;69819;48.798;11.770;2023-07-22T09:25:26;0.73;;;0.73;;
80494;SDS011;69819;48.798;11.770;2023-07-22T09:27:54;0.88;;;0.88;;
80494;SDS011;69819;48.798;11.770;2023-07-22T09:30:26;0.93;;;0.90;;
80494;SDS011;69819;48.798;11.770;2023-07-22T09:33:04;0.80;;;0.80;;
80494;SDS011;69819;48.798;11.770;2023-07-22T09:35:48;0.80;;;0.80;;
80494;SDS011;69819;48.798;11.770;2023-07-22T09:38:18;1.13;;;0.60;;
80494;SDS011;69819;48.798;11.770;2023-07-22T09:40:51;0.60;;;0.60;;
80494;SDS011;69819;48.798;11.770;2023-07-22T09:43:18;0.70;;;0.70;;
80494;SDS011;69819;48.798;11.770;2023-07-22T09:45:46;1.35;;;1.00;;
80494;SDS011;69819;48.798;11.770;2023-07-22T09:48:13;0.80;;;0.80;;
80494;SDS011;69819;48.798;11.770;2023-07-22T09:50:40;0.70;;;0.70;;
80494;SDS011;69819;48.798;11.770;2023-07-22T09:53:07;0.68;;;0.68;;
80494;SDS011;69819;48.798;11.770;2023-07-22T09:55:33;0.70;;;0.70;;
80494;SDS011;69819;48.798;11.770;2023-07-22T09:58:03;0.82;;;0.82;;
80494;SDS011;69819;48.798;11.770;2023-07-22T10:00:36;0.63;;;0.63;;
80494;SDS011;69819;48.798;11.770;2023-07-22T10:03:04;0.82;;;0.80;;
80494;SDS011;69819;48.798;11.770;2023-07-22T10:05:38;0.82;;;0.82;;
80494;SDS011;69819;48.798;11.770;2023-07-22T10:08:05;0.77;;;0.75;;
80494;SDS011;69819;48.798;11.770;2023-07-22T10:10:33;0.77;;;0.77;;
80494;SDS011;69819;48.798;11.770;2023-07-22T10:13:02;1.83;;;0.70;;
80494;SDS011;69819;48.798;11.770;2023-07-22T10:15:29;0.60;;;0.60;;
80494;SDS011;69819;48.798;11.770;2023-07-22T10:18:00;1.50;;;0.90;;
80494;SDS011;69819;48.798;11.770;2023-07-22T10:20:32;0.60;;;0.60;;
80494;SDS011;69819;48.798;11.770;2023-07-22T10:23:01;0.88;;;0.88;;
80494;SDS011;69819;48.798;11.770;2023-07-22T10:25:29;0.77;;;0.70;;
80494;SDS011;69819;48.798;11.770;2023-07-22T10:27:56;0.70;;;0.63;;
80494;SDS011;69819;48.798;11.770;2023-07-22T10:30:21;2.03;;;0.80;;
80494;SDS011;69819;48.798;11.770;2023-07-22T10:32:51;1.88;;;0.63;;
80494;SDS011;69819;48.798;11.770;2023-07-22T10:38:06;0.80;;;0.80;;
80494;SDS011;69819;48.798;11.770;2023-07-22T10:40:47;0.70;;;0.70;;
80494;SDS011;69819;48.798;11.770;2023-07-22T10:43:16;0.80;;;0.80;;
80494;SDS011;69819;48.798;11.770;2023-07-22T10:45:49;1.20;;;1.10;;
80494;SDS011;69819;48.798;11.770;2023-07-22T10:48:18;1.77;;;1.25;;
80494;SDS011;69819;48.798;11.770;2023-07-22T10:50:47;1.55;;;1.42;;
80494;SDS011;69819;48.798;11.770;2023-07-22T10:53:20;0.90;;;0.90;;
80494;SDS011;69819;48.798;11.770;2023-07-22T11:04:12;0.85;;;0.85;;
80494;SDS011;69819;48.798;11.770;2023-07-22T11:06:56;0.80;;;0.80;;
80494;SDS011;69819;48.798;11.770;2023-07-22T11:14:30;0.93;;;0.65;;
80494;SDS011;69819;48.798;11.770;2023-07-22T11:17:03;2.97;;;0.77;;
80494;SDS011;69819;48.798;11.770;2023-07-22T11:19:36;0.88;;;0.88;;
80494;SDS011;69819;48.798;11.770;2023-07-22T11:22:03;0.80;;;0.80;;
80494;SDS011;69819;48.798;11.770;2023-07-22T11:24:32;1.48;;;0.80;;
80494;SDS011;69819;48.798;11.770;2023-07-22T11:27:01;4.53;;;0.77;;
80494;SDS011;69819;48.798;11.770;2023-07-22T11:29:33;1.15;;;0.80;;
80494;SDS011;69819;48.798;11.770;2023-07-22T11:32:00;1.15;;;0.70;;
80494;SDS011;69819;48.798;11.770;2023-07-22T11:34:27;0.93;;;0.70;;
80494;SDS011;69819;48.798;11.770;2023-07-22T11:36:54;0.73;;;0.73;;
80494;SDS011;69819;48.798;11.770;2023-07-22T11:39:22;0.80;;;0.80;;
80494;SDS011;69819;48.798;11.770;2023-07-22T11:41:51;0.77;;;0.77;;
80494;SDS011;69819;48.798;11.770;2023-07-22T11:44:22;0.70;;;0.70;;
80494;SDS011;69819;48.798;11.770;2023-07-22T11:52:04;0.95;;;0.90;;
80494;SDS011;69819;48.798;11.770;2023-07-22T11:54:39;0.98;;;0.98;;
80494;SDS011;69819;48.798;11.770;2023-07-22T11:57:13;0.70;;;0.70;;
80494;SDS011;69819;48.798;11.770;2023-07-22T11:59:48;1.00;;;0.70;;
80494;SDS011;69819;48.798;11.770;2023-07-22T12:05:00;0.70;;;0.70;;
80494;SDS011;69819;48.798;11.770;2023-07-22T12:07:37;0.80;;;0.80;;
80494;SDS011;69819;48.798;11.770;2023-07-22T12:10:05;1.40;;;1.00;;
80494;SDS011;69819;48.798;11.770;2023-07-22T12:15:12;1.27;;;0.85;;
80494;SDS011;69819;48.798;11.770;2023-07-22T12:17:54;1.08;;;0.90;;
80494;SDS011;69819;48.798;11.770;2023-07-22T12:20:27;1.00;;;0.90;;
80494;SDS011;69819;48.798;11.770;2023-07-22T12:22:55;1.27;;;0.98;;
80494;SDS011;69819;48.798;11.770;2023-07-22T12:25:23;0.77;;;0.77;;
80494;SDS011;69819;48.798;11.770;2023-07-22T12:27:49;0.70;;;0.70;;
80494;SDS011;69819;48.798;11.770;2023-07-22T12:30:15;1.08;;;0.98;;
80494;SDS011;69819;48.798;11.770;2023-07-22T12:32:41;1.85;;;1.00;;
80494;SDS011;69819;48.798;11.770;2023-07-22T12:35:07;0.77;;;0.77;;
80494;SDS011;69819;48.798;11.770;2023-07-22T12:37:34;0.93;;;0.88;;
80494;SDS011;69819;48.798;11.770;2023-07-22T12:40:01;1.65;;;1.10;;
80494;SDS011;69819;48.798;11.770;2023-07-22T12:42:29;1.02;;;1.02;;
80494;SDS011;69819;48.798;11.770;2023-07-22T12:44:55;1.10;;;1.00;;
80494;SDS011;69819;48.798;11.770;2023-07-22T12:47:21;4.15;;;1.00;;
80494;SDS011;69819;48.798;11.770;2023-07-22T12:49:47;2.05;;;0.93;;
80494;SDS011;69819;48.798;11.770;2023-07-22T12:52:13;0.93;;;0.90;;
80494;SDS011;69819;48.798;11.770;2023-07-22T12:54:39;0.80;;;0.80;;
80494;SDS011;69819;48.798;11.770;2023-07-22T12:57:04;0.80;;;0.80;;
80494;SDS011;69819;48.798;11.770;2023-07-22T12:59:31;1.10;;;0.98;;
80494;SDS011;69819;48.798;11.770;2023-07-22T13:01:57;2.08;;;1.00;;
80494;SDS011;69819;48.798;11.770;2023-07-22T13:04:23;1.17;;;1.00;;
80494;SDS011;69819;48.798;11.770;2023-07-22T13:06:50;1.77;;;0.98;;
80494;SDS011;69819;48.798;11.770;2023-07-22T13:09:19;1.00;;;1.00;;
80494;SDS011;69819;48.798;11.770;2023-07-22T13:11:45;0.70;;;0.70;;
80494;SDS011;69819;48.798;11.770;2023-07-22T13:14:11;1.08;;;0.98;;
80494;SDS011;69819;48.798;11.770;2023-07-22T13:16:37;2.00;;;0.98;;
80494;SDS011;69819;48.798;11.770;2023-07-22T13:19:03;1.05;;;0.93;;
80494;SDS011;69819;48.798;11.770;2023-07-22T13:21:29;3.05;;;1.15;;
80494;SDS011;69819;48.798;11.770;2023-07-22T13:23:55;1.48;;;1.10;;
80494;SDS011;69819;48.798;11.770;2023-07-22T13:26:21;1.70;;;1.08;;
80494;SDS011;69819;48.798;11.770;2023-07-22T13:28:47;3.92;;;1.20;;
80494;SDS011;69819;48.798;11.770;2023-07-22T13:31:13;0.98;;;0.98;;
80494;SDS011;69819;48.798;11.770;2023-07-22T13:33:39;1.10;;;1.05;;
80494;SDS011;69819;48.798;11.770;2023-07-22T13:36:06;1.10;;;1.00;;
80494;SDS011;69819;48.798;11.770;2023-07-22T13:38:34;1.27;;;1.10;;
80494;SDS011;69819;48.798;11.770;2023-07-22T13:41:00;0.90;;;0.90;;
80494;SDS011;69819;48.798;11.770;2023-07-22T13:43:25;1.35;;;1.05;;
80494;SDS011;69819;48.798;11.770;2023-07-22T13:45:53;0.95;;;0.95;;
80494;SDS011;69819;48.798;11.770;2023-07-22T13:48:19;1.55;;;1.10;;
80494;SDS011;69819;48.798;11.770;2023-07-22T13:50:45;1.00;;;0.82;;
80494;SDS011;69819;48.798;11.770;2023-07-22T13:53:10;1.08;;;1.05;;
80494;SDS011;69819;48.798;11.770;2023-07-22T13:55:36;0.98;;;0.98;;
80494;SDS011;69819;48.798;11.770;2023-07-22T13:58:02;1.05;;;1.00;;
80494;SDS011;69819;48.798;11.770;2023-07-22T14:00:28;1.20;;;1.10;;
80494;SDS011;69819;48.798;11.770;2023-07-22T14:02:54;0.98;;;0.98;;
80494;SDS011;69819;48.798;11.770;2023-07-22T14:05:20;0.93;;;0.93;;
80494;SDS011;69819;48.798;11.770;2023-07-22T14:07:46;1.67;;;1.58;;
80494;SDS011;69819;48.798;11.770;2023-07-22T14:10:11;1.20;;;1.10;;
80494;SDS011;69819;48.798;11.770;2023-07-22T14:12:37;1.88;;;1.20;;
80494;SDS011;69819;48.798;11.770;2023-07-22T14:15:03;1.38;;;1.08;;
80494;SDS011;69819;48.798;11.770;2023-07-22T14:17:29;1.00;;;1.00;;
80494;SDS011;69819;48.798;11.770;2023-07-22T14:19:59;0.95;;;0.93;;
80494;SDS011;69819;48.798;11.770;2023-07-22T14:22:25;1.20;;;1.10;;
80494;SDS011;69819;48.798;11.770;2023-07-22T14:24:51;0.93;;;0.90;;
80494;SDS011;69819;48.798;11.770;2023-07-22T14:27:16;1.15;;;1.05;;
80494;SDS011;69819;48.798;11.770;2023-07-22T14:29:43;1.85;;;1.00;;
80494;SDS011;69819;48.798;11.770;2023-07-22T14:32:09;1.30;;;1.17;;
80494;SDS011;69819;48.798;11.770;2023-07-22T14:34:35;0.90;;;0.90;;
80494;SDS011;69819;48.798;11.770;2023-07-22T14:37:01;1.05;;;1.00;;
80494;SDS011;69819;48.798;11.770;2023-07-22T14:39:29;1.20;;;1.10;;
80494;SDS011;69819;48.798;11.770;2023-07-22T14:41:54;1.20;;;1.10;;
80494;SDS011;69819;48.798;11.770;2023-07-22T14:44:20;1.10;;;1.10;;
80494;SDS011;69819;48.798;11.770;2023-07-22T14:46:46;1.05;;;1.00;;
80494;SDS011;69819;48.798;11.770;2023-07-22T14:49:12;1.15;;;1.05;;
80494;SDS011;69819;48.798;11.770;2023-07-22T14:51:38;1.48;;;1.35;;
80494;SDS011;69819;48.798;11.770;2023-07-22T14:54:04;0.90;;;0.90;;
80494;SDS011;69819;48.798;11.770;2023-07-22T14:56:30;1.33;;;1.23;;
80494;SDS011;69819;48.798;11.770;2023-07-22T14:58:56;1.00;;;1.00;;
80494;SDS011;69819;48.798;11.770;2023-07-22T15:01:21;0.90;;;0.90;;
80494;SDS011;69819;48.798;11.770;2023-07-22T15:03:47;0.82;;;0.82;;